sensor_id;sensor_type;location;lat;lon;timestamp;P1;durP1;ratioP1;P2;durP2;ratioP2
29824;SDS011;16713;52.916;12.834;2024-01-06T00:00:04;23.77;;;15.13;;
29824;SDS011;16713;52.916;12.834;2024-01-06T00:02:31;27.63;;;15.50;;
29824;SDS011;16713;52.916;12.834;2024-01-06T00:04:57;29.90;;;16.15;;
29824;SDS011;16713;52.916;12.834;2024-01-06T00:07:23;26.67;;;14.55;;
29824;SDS011;16713;52.916;12.834;2024-01-06T00:09:50;28.77;;;15.25;;
29824;SDS011;16713;52.916;12.834;2024-01-06T00:12:17;28.08;;;14.57;;
29824;SDS011;16713;52.916;12.834;2024-01-06T00:14:44;25.95;;;14.63;;
29824;SDS011;16713;52.916;12.834;2024-01-06T00:17:11;24.92;;;15.57;;
29824;SDS011;16713;52.916;12.834;2024-01-06T00:19:38;26.63;;;15.73;;
29824;SDS011;16713;52.916;12.834;2024-01-06T00:22:04;28.48;;;15.07;;
29824;SDS011;16713;52.916;12.834;2024-01-06T00:24:31;27.45;;;15.75;;
29824;SDS011;16713;52.916;12.834;2024-01-06T00:26:57;30.50;;;15.57;;
29824;SDS011;16713;52.916;12.834;2024-01-06T00:29:24;30.70;;;16.15;;
29824;SDS011;16713;52.916;12.834;2024-01-06T00:31:50;29.73;;;16.48;;
29824;SDS011;16713;52.916;12.834;2024-01-06T00:34:16;29.77;;;16.17;;
29824;SDS011;16713;52.916;12.834;2024-01-06T00:36:43;28.35;;;16.33;;
29824;SDS011;16713;52.916;12.834;2024-01-06T00:39:10;28.52;;;16.20;;
29824;SDS011;16713;52.916;12.834;2024-01-06T00:41:36;29.52;;;15.35;;
29824;SDS011;16713;52.916;12.834;2024-01-06T00:44:03;30.58;;;16.80;;
29824;SDS011;16713;52.916;12.834;2024-01-06T00:46:29;30.05;;;16.25;;
29824;SDS011;16713;52.916;12.834;2024-01-06T00:48:56;27.67;;;16.45;;
29824;SDS011;16713;52.916;12.834;2024-01-06T00:51:22;31.65;;;17.40;;
29824;SDS011;16713;52.916;12.834;2024-01-06T00:53:49;31.58;;;17.05;;
29824;SDS011;16713;52.916;12.834;2024-01-06T00:56:15;30.40;;;17.17;;
29824;SDS011;16713;52.916;12.834;2024-01-06T00:58:42;31.52;;;17.27;;
29824;SDS011;16713;52.916;12.834;2024-01-06T01:01:08;34.28;;;17.35;;
29824;SDS011;16713;52.916;12.834;2024-01-06T01:03:35;31.80;;;16.85;;
29824;SDS011;16713;52.916;12.834;2024-01-06T01:06:01;33.72;;;17.83;;
29824;SDS011;16713;52.916;12.834;2024-01-06T01:08:28;32.70;;;17.08;;
29824;SDS011;16713;52.916;12.834;2024-01-06T01:10:54;33.72;;;17.42;;
29824;SDS011;16713;52.916;12.834;2024-01-06T01:13:21;35.58;;;18.15;;
29824;SDS011;16713;52.916;12.834;2024-01-06T01:15:48;34.25;;;17.30;;
29824;SDS011;16713;52.916;12.834;2024-01-06T01:18:14;32.72;;;17.55;;
29824;SDS011;16713;52.916;12.834;2024-01-06T01:20:41;37.45;;;18.20;;
29824;SDS011;16713;52.916;12.834;2024-01-06T01:23:08;34.85;;;18.63;;
29824;SDS011;16713;52.916;12.834;2024-01-06T01:25:34;31.63;;;17.63;;
29824;SDS011;16713;52.916;12.834;2024-01-06T01:28:01;31.98;;;16.17;;
29824;SDS011;16713;52.916;12.834;2024-01-06T01:30:28;35.10;;;17.70;;
29824;SDS011;16713;52.916;12.834;2024-01-06T01:32:55;32.80;;;16.75;;
29824;SDS011;16713;52.916;12.834;2024-01-06T01:35:21;30.08;;;16.27;;
29824;SDS011;16713;52.916;12.834;2024-01-06T01:37:48;35.20;;;17.75;;
29824;SDS011;16713;52.916;12.834;2024-01-06T01:40:14;31.15;;;17.15;;
29824;SDS011;16713;52.916;12.834;2024-01-06T01:42:42;38.72;;;18.42;;
29824;SDS011;16713;52.916;12.834;2024-01-06T01:45:09;39.15;;;19.48;;
29824;SDS011;16713;52.916;12.834;2024-01-06T01:47:38;35.35;;;16.88;;
29824;SDS011;16713;52.916;12.834;2024-01-06T01:50:06;37.13;;;19.65;;
29824;SDS011;16713;52.916;12.834;2024-01-06T01:52:34;36.00;;;19.02;;
29824;SDS011;16713;52.916;12.834;2024-01-06T01:55:02;33.10;;;18.73;;
29824;SDS011;16713;52.916;12.834;2024-01-06T01:57:29;35.85;;;17.70;;
29824;SDS011;16713;52.916;12.834;2024-01-06T01:59:55;38.85;;;19.90;;
29824;SDS011;16713;52.916;12.834;2024-01-06T02:02:23;37.05;;;18.17;;
29824;SDS011;16713;52.916;12.834;2024-01-06T02:04:49;39.22;;;19.75;;
29824;SDS011;16713;52.916;12.834;2024-01-06T02:07:16;32.85;;;18.45;;
29824;SDS011;16713;52.916;12.834;2024-01-06T02:09:43;33.83;;;18.17;;
29824;SDS011;16713;52.916;12.834;2024-01-06T02:12:09;33.88;;;18.83;;
29824;SDS011;16713;52.916;12.834;2024-01-06T02:14:36;39.50;;;18.75;;
29824;SDS011;16713;52.916;12.834;2024-01-06T02:17:02;36.15;;;19.45;;
29824;SDS011;16713;52.916;12.834;2024-01-06T02:19:29;38.30;;;19.25;;
29824;SDS011;16713;52.916;12.834;2024-01-06T02:21:56;35.60;;;19.80;;
29824;SDS011;16713;52.916;12.834;2024-01-06T02:24:22;32.65;;;17.30;;
29824;SDS011;16713;52.916;12.834;2024-01-06T02:26:49;36.50;;;20.13;;
29824;SDS011;16713;52.916;12.834;2024-01-06T02:29:15;41.33;;;19.00;;
29824;SDS011;16713;52.916;12.834;2024-01-06T02:31:42;34.00;;;18.02;;
29824;SDS011;16713;52.916;12.834;2024-01-06T02:34:08;39.08;;;19.33;;
29824;SDS011;16713;52.916;12.834;2024-01-06T02:36:35;37.03;;;18.48;;
29824;SDS011;16713;52.916;12.834;2024-01-06T02:39:01;40.47;;;20.77;;
29824;SDS011;16713;52.916;12.834;2024-01-06T02:41:28;35.38;;;19.13;;
29824;SDS011;16713;52.916;12.834;2024-01-06T02:43:54;41.83;;;20.25;;
29824;SDS011;16713;52.916;12.834;2024-01-06T02:46:22;41.65;;;19.65;;
29824;SDS011;16713;52.916;12.834;2024-01-06T02:48:48;32.95;;;18.00;;
29824;SDS011;16713;52.916;12.834;2024-01-06T02:51:15;39.85;;;19.83;;
29824;SDS011;16713;52.916;12.834;2024-01-06T02:53:42;34.58;;;18.48;;
29824;SDS011;16713;52.916;12.834;2024-01-06T02:56:12;39.20;;;19.77;;
29824;SDS011;16713;52.916;12.834;2024-01-06T02:58:38;38.15;;;19.52;;
29824;SDS011;16713;52.916;12.834;2024-01-06T03:01:05;35.80;;;18.02;;
29824;SDS011;16713;52.916;12.834;2024-01-06T03:03:32;43.83;;;20.92;;
29824;SDS011;16713;52.916;12.834;2024-01-06T03:05:58;42.35;;;19.27;;
29824;SDS011;16713;52.916;12.834;2024-01-06T03:08:26;40.83;;;20.67;;
29824;SDS011;16713;52.916;12.834;2024-01-06T03:10:53;42.17;;;19.55;;
29824;SDS011;16713;52.916;12.834;2024-01-06T03:13:19;37.05;;;19.63;;
29824;SDS011;16713;52.916;12.834;2024-01-06T03:15:46;41.70;;;21.20;;
29824;SDS011;16713;52.916;12.834;2024-01-06T03:18:12;40.85;;;18.90;;
29824;SDS011;16713;52.916;12.834;2024-01-06T03:20:39;44.58;;;19.88;;
29824;SDS011;16713;52.916;12.834;2024-01-06T03:23:05;49.17;;;20.73;;
29824;SDS011;16713;52.916;12.834;2024-01-06T03:25:32;43.22;;;21.25;;
29824;SDS011;16713;52.916;12.834;2024-01-06T03:27:58;44.85;;;20.27;;
29824;SDS011;16713;52.916;12.834;2024-01-06T03:30:25;47.03;;;20.83;;
29824;SDS011;16713;52.916;12.834;2024-01-06T03:32:51;44.72;;;20.63;;
29824;SDS011;16713;52.916;12.834;2024-01-06T03:35:18;41.22;;;19.40;;
29824;SDS011;16713;52.916;12.834;2024-01-06T03:37:44;47.45;;;21.70;;
29824;SDS011;16713;52.916;12.834;2024-01-06T03:40:11;38.47;;;20.48;;
29824;SDS011;16713;52.916;12.834;2024-01-06T03:42:38;42.15;;;20.15;;
29824;SDS011;16713;52.916;12.834;2024-01-06T03:45:04;45.60;;;20.48;;
29824;SDS011;16713;52.916;12.834;2024-01-06T03:47:31;42.30;;;21.83;;
29824;SDS011;16713;52.916;12.834;2024-01-06T03:49:57;46.28;;;21.17;;
29824;SDS011;16713;52.916;12.834;2024-01-06T03:52:24;46.55;;;20.33;;
29824;SDS011;16713;52.916;12.834;2024-01-06T03:54:51;49.65;;;21.48;;
29824;SDS011;16713;52.916;12.834;2024-01-06T03:57:17;47.75;;;21.40;;
29824;SDS011;16713;52.916;12.834;2024-01-06T03:59:43;42.50;;;21.60;;
29824;SDS011;16713;52.916;12.834;2024-01-06T04:02:10;44.03;;;19.92;;
29824;SDS011;16713;52.916;12.834;2024-01-06T04:04:36;38.70;;;19.42;;
29824;SDS011;16713;52.916;12.834;2024-01-06T04:07:03;48.25;;;20.95;;
29824;SDS011;16713;52.916;12.834;2024-01-06T04:09:29;41.70;;;19.73;;
29824;SDS011;16713;52.916;12.834;2024-01-06T04:11:56;42.97;;;18.88;;
29824;SDS011;16713;52.916;12.834;2024-01-06T04:14:22;40.47;;;17.70;;
29824;SDS011;16713;52.916;12.834;2024-01-06T04:16:49;38.45;;;19.10;;
29824;SDS011;16713;52.916;12.834;2024-01-06T04:19:15;39.15;;;19.13;;
29824;SDS011;16713;52.916;12.834;2024-01-06T04:21:42;38.67;;;18.02;;
29824;SDS011;16713;52.916;12.834;2024-01-06T04:24:08;39.80;;;19.23;;
29824;SDS011;16713;52.916;12.834;2024-01-06T04:26:35;40.08;;;19.70;;
29824;SDS011;16713;52.916;12.834;2024-01-06T04:29:01;32.10;;;16.77;;
29824;SDS011;16713;52.916;12.834;2024-01-06T04:31:28;40.33;;;19.25;;
29824;SDS011;16713;52.916;12.834;2024-01-06T04:33:54;44.05;;;20.30;;
29824;SDS011;16713;52.916;12.834;2024-01-06T04:36:21;33.30;;;16.95;;
29824;SDS011;16713;52.916;12.834;2024-01-06T04:38:47;41.63;;;18.63;;
29824;SDS011;16713;52.916;12.834;2024-01-06T04:41:14;45.38;;;21.38;;
29824;SDS011;16713;52.916;12.834;2024-01-06T04:43:40;48.63;;;20.70;;
29824;SDS011;16713;52.916;12.834;2024-01-06T04:46:07;41.88;;;18.70;;
29824;SDS011;16713;52.916;12.834;2024-01-06T04:48:33;41.28;;;19.17;;
29824;SDS011;16713;52.916;12.834;2024-01-06T04:51:00;46.72;;;21.58;;
29824;SDS011;16713;52.916;12.834;2024-01-06T04:53:29;43.60;;;20.40;;
29824;SDS011;16713;52.916;12.834;2024-01-06T04:55:55;46.95;;;21.88;;
29824;SDS011;16713;52.916;12.834;2024-01-06T04:58:22;44.20;;;20.42;;
29824;SDS011;16713;52.916;12.834;2024-01-06T05:00:48;49.28;;;21.75;;
29824;SDS011;16713;52.916;12.834;2024-01-06T05:03:17;44.65;;;21.15;;
29824;SDS011;16713;52.916;12.834;2024-01-06T05:05:44;43.95;;;21.10;;
29824;SDS011;16713;52.916;12.834;2024-01-06T05:08:11;51.88;;;21.85;;
29824;SDS011;16713;52.916;12.834;2024-01-06T05:10:37;47.85;;;21.77;;
29824;SDS011;16713;52.916;12.834;2024-01-06T05:13:04;47.90;;;21.38;;
29824;SDS011;16713;52.916;12.834;2024-01-06T05:15:30;37.75;;;18.50;;
29824;SDS011;16713;52.916;12.834;2024-01-06T05:17:57;47.05;;;20.20;;
29824;SDS011;16713;52.916;12.834;2024-01-06T05:20:23;41.67;;;20.25;;
29824;SDS011;16713;52.916;12.834;2024-01-06T05:22:50;44.70;;;22.00;;
29824;SDS011;16713;52.916;12.834;2024-01-06T05:25:16;49.25;;;22.77;;
29824;SDS011;16713;52.916;12.834;2024-01-06T05:27:42;44.67;;;22.13;;
29824;SDS011;16713;52.916;12.834;2024-01-06T05:30:09;43.85;;;21.65;;
29824;SDS011;16713;52.916;12.834;2024-01-06T05:32:36;41.47;;;21.58;;
29824;SDS011;16713;52.916;12.834;2024-01-06T05:35:04;48.13;;;23.25;;
29824;SDS011;16713;52.916;12.834;2024-01-06T05:37:31;46.55;;;20.90;;
29824;SDS011;16713;52.916;12.834;2024-01-06T05:39:58;49.90;;;22.02;;
29824;SDS011;16713;52.916;12.834;2024-01-06T05:42:27;47.65;;;23.73;;
29824;SDS011;16713;52.916;12.834;2024-01-06T05:44:54;51.08;;;24.02;;
29824;SDS011;16713;52.916;12.834;2024-01-06T05:47:21;48.28;;;22.73;;
29824;SDS011;16713;52.916;12.834;2024-01-06T05:49:48;53.67;;;21.83;;
29824;SDS011;16713;52.916;12.834;2024-01-06T05:52:15;51.78;;;23.17;;
29824;SDS011;16713;52.916;12.834;2024-01-06T05:54:42;46.65;;;24.08;;
29824;SDS011;16713;52.916;12.834;2024-01-06T05:57:08;46.08;;;22.67;;
29824;SDS011;16713;52.916;12.834;2024-01-06T05:59:35;50.30;;;23.85;;
29824;SDS011;16713;52.916;12.834;2024-01-06T06:02:02;43.00;;;22.67;;
29824;SDS011;16713;52.916;12.834;2024-01-06T06:04:28;55.35;;;24.08;;
29824;SDS011;16713;52.916;12.834;2024-01-06T06:06:55;46.05;;;21.45;;
29824;SDS011;16713;52.916;12.834;2024-01-06T06:09:25;53.75;;;25.50;;
29824;SDS011;16713;52.916;12.834;2024-01-06T06:11:51;52.03;;;23.27;;
29824;SDS011;16713;52.916;12.834;2024-01-06T06:14:18;52.13;;;24.95;;
29824;SDS011;16713;52.916;12.834;2024-01-06T06:16:44;49.65;;;21.65;;
29824;SDS011;16713;52.916;12.834;2024-01-06T06:19:11;49.88;;;23.83;;
29824;SDS011;16713;52.916;12.834;2024-01-06T06:21:37;54.10;;;23.98;;
29824;SDS011;16713;52.916;12.834;2024-01-06T06:24:04;49.70;;;22.50;;
29824;SDS011;16713;52.916;12.834;2024-01-06T06:26:31;54.70;;;23.95;;
29824;SDS011;16713;52.916;12.834;2024-01-06T06:28:58;52.90;;;22.65;;
29824;SDS011;16713;52.916;12.834;2024-01-06T06:31:25;48.80;;;23.88;;
29824;SDS011;16713;52.916;12.834;2024-01-06T06:33:51;51.78;;;23.90;;
29824;SDS011;16713;52.916;12.834;2024-01-06T06:36:18;59.60;;;25.40;;
29824;SDS011;16713;52.916;12.834;2024-01-06T06:38:44;47.05;;;22.05;;
29824;SDS011;16713;52.916;12.834;2024-01-06T06:41:11;47.47;;;21.73;;
29824;SDS011;16713;52.916;12.834;2024-01-06T06:43:38;50.13;;;22.38;;
29824;SDS011;16713;52.916;12.834;2024-01-06T06:46:04;49.50;;;22.88;;
29824;SDS011;16713;52.916;12.834;2024-01-06T06:48:31;51.20;;;23.45;;
29824;SDS011;16713;52.916;12.834;2024-01-06T06:50:57;50.85;;;22.88;;
29824;SDS011;16713;52.916;12.834;2024-01-06T06:53:24;44.83;;;20.02;;
29824;SDS011;16713;52.916;12.834;2024-01-06T06:55:50;48.03;;;22.73;;
29824;SDS011;16713;52.916;12.834;2024-01-06T06:58:16;49.00;;;23.48;;
29824;SDS011;16713;52.916;12.834;2024-01-06T07:00:43;49.70;;;21.75;;
29824;SDS011;16713;52.916;12.834;2024-01-06T07:03:10;49.75;;;22.20;;
29824;SDS011;16713;52.916;12.834;2024-01-06T07:05:36;47.80;;;22.75;;
29824;SDS011;16713;52.916;12.834;2024-01-06T07:08:03;43.08;;;22.80;;
29824;SDS011;16713;52.916;12.834;2024-01-06T07:10:30;47.20;;;20.65;;
29824;SDS011;16713;52.916;12.834;2024-01-06T07:12:56;49.38;;;21.70;;
29824;SDS011;16713;52.916;12.834;2024-01-06T07:15:23;51.20;;;21.08;;
29824;SDS011;16713;52.916;12.834;2024-01-06T07:17:49;44.83;;;22.05;;
29824;SDS011;16713;52.916;12.834;2024-01-06T07:20:16;46.85;;;21.13;;
29824;SDS011;16713;52.916;12.834;2024-01-06T07:22:42;49.78;;;21.00;;
29824;SDS011;16713;52.916;12.834;2024-01-06T07:25:10;43.75;;;21.98;;
29824;SDS011;16713;52.916;12.834;2024-01-06T07:27:36;44.03;;;21.42;;
29824;SDS011;16713;52.916;12.834;2024-01-06T07:30:03;41.47;;;21.15;;
29824;SDS011;16713;52.916;12.834;2024-01-06T07:32:30;38.05;;;18.30;;
29824;SDS011;16713;52.916;12.834;2024-01-06T07:34:57;43.05;;;20.25;;
29824;SDS011;16713;52.916;12.834;2024-01-06T07:37:23;44.47;;;19.13;;
29824;SDS011;16713;52.916;12.834;2024-01-06T07:39:50;42.55;;;19.52;;
29824;SDS011;16713;52.916;12.834;2024-01-06T07:42:17;42.70;;;19.13;;
29824;SDS011;16713;52.916;12.834;2024-01-06T07:44:44;42.17;;;18.00;;
29824;SDS011;16713;52.916;12.834;2024-01-06T07:47:10;44.88;;;18.98;;
29824;SDS011;16713;52.916;12.834;2024-01-06T07:49:37;40.60;;;18.67;;
29824;SDS011;16713;52.916;12.834;2024-01-06T07:52:03;40.88;;;17.50;;
29824;SDS011;16713;52.916;12.834;2024-01-06T07:54:30;34.45;;;17.08;;
29824;SDS011;16713;52.916;12.834;2024-01-06T07:56:56;37.85;;;17.20;;
29824;SDS011;16713;52.916;12.834;2024-01-06T07:59:23;37.78;;;16.75;;
29824;SDS011;16713;52.916;12.834;2024-01-06T08:01:50;38.47;;;17.85;;
29824;SDS011;16713;52.916;12.834;2024-01-06T08:04:16;38.83;;;18.35;;
29824;SDS011;16713;52.916;12.834;2024-01-06T08:06:43;39.53;;;16.67;;
29824;SDS011;16713;52.916;12.834;2024-01-06T08:09:10;34.85;;;16.13;;
29824;SDS011;16713;52.916;12.834;2024-01-06T08:11:36;38.55;;;16.98;;
29824;SDS011;16713;52.916;12.834;2024-01-06T08:14:03;42.10;;;19.00;;
29824;SDS011;16713;52.916;12.834;2024-01-06T08:16:29;34.47;;;16.95;;
29824;SDS011;16713;52.916;12.834;2024-01-06T08:18:56;35.80;;;16.92;;
29824;SDS011;16713;52.916;12.834;2024-01-06T08:21:22;41.33;;;17.58;;
29824;SDS011;16713;52.916;12.834;2024-01-06T08:23:49;33.28;;;16.20;;
29824;SDS011;16713;52.916;12.834;2024-01-06T08:26:15;42.33;;;17.45;;
29824;SDS011;16713;52.916;12.834;2024-01-06T08:28:42;36.60;;;16.05;;
29824;SDS011;16713;52.916;12.834;2024-01-06T08:31:08;34.92;;;17.58;;
29824;SDS011;16713;52.916;12.834;2024-01-06T08:33:35;37.63;;;17.50;;
29824;SDS011;16713;52.916;12.834;2024-01-06T08:36:02;34.88;;;16.05;;
29824;SDS011;16713;52.916;12.834;2024-01-06T08:38:28;32.40;;;16.45;;
29824;SDS011;16713;52.916;12.834;2024-01-06T08:40:55;40.00;;;17.63;;
29824;SDS011;16713;52.916;12.834;2024-01-06T08:43:21;34.63;;;16.85;;
29824;SDS011;16713;52.916;12.834;2024-01-06T08:45:48;44.10;;;18.45;;
29824;SDS011;16713;52.916;12.834;2024-01-06T08:48:14;37.97;;;17.00;;
29824;SDS011;16713;52.916;12.834;2024-01-06T08:50:42;33.75;;;16.40;;
29824;SDS011;16713;52.916;12.834;2024-01-06T08:53:08;34.15;;;16.77;;
29824;SDS011;16713;52.916;12.834;2024-01-06T08:55:35;32.80;;;15.52;;
29824;SDS011;16713;52.916;12.834;2024-01-06T08:58:01;37.08;;;16.52;;
29824;SDS011;16713;52.916;12.834;2024-01-06T09:00:28;26.80;;;14.98;;
29824;SDS011;16713;52.916;12.834;2024-01-06T09:02:54;37.42;;;18.33;;
29824;SDS011;16713;52.916;12.834;2024-01-06T09:05:21;31.33;;;16.15;;
29824;SDS011;16713;52.916;12.834;2024-01-06T09:07:48;26.75;;;15.52;;
29824;SDS011;16713;52.916;12.834;2024-01-06T09:10:20;31.83;;;15.43;;
29824;SDS011;16713;52.916;12.834;2024-01-06T09:12:47;28.90;;;15.55;;
29824;SDS011;16713;52.916;12.834;2024-01-06T09:15:14;28.13;;;15.73;;
29824;SDS011;16713;52.916;12.834;2024-01-06T09:17:40;31.05;;;15.63;;
29824;SDS011;16713;52.916;12.834;2024-01-06T09:20:07;32.50;;;15.05;;
29824;SDS011;16713;52.916;12.834;2024-01-06T09:22:34;27.50;;;15.75;;
29824;SDS011;16713;52.916;12.834;2024-01-06T09:25:01;31.95;;;14.57;;
29824;SDS011;16713;52.916;12.834;2024-01-06T09:27:27;31.65;;;16.30;;
29824;SDS011;16713;52.916;12.834;2024-01-06T09:29:54;32.17;;;15.13;;
29824;SDS011;16713;52.916;12.834;2024-01-06T09:32:20;28.23;;;14.63;;
29824;SDS011;16713;52.916;12.834;2024-01-06T09:34:49;29.83;;;15.88;;
29824;SDS011;16713;52.916;12.834;2024-01-06T09:37:15;29.38;;;15.48;;
29824;SDS011;16713;52.916;12.834;2024-01-06T09:39:42;31.48;;;15.73;;
29824;SDS011;16713;52.916;12.834;2024-01-06T09:42:10;27.00;;;14.07;;
29824;SDS011;16713;52.916;12.834;2024-01-06T09:44:37;33.47;;;16.23;;
29824;SDS011;16713;52.916;12.834;2024-01-06T09:47:04;28.70;;;15.82;;
29824;SDS011;16713;52.916;12.834;2024-01-06T09:49:32;34.33;;;16.98;;
29824;SDS011;16713;52.916;12.834;2024-01-06T09:52:01;27.58;;;14.77;;
29824;SDS011;16713;52.916;12.834;2024-01-06T09:54:31;38.65;;;16.67;;
29824;SDS011;16713;52.916;12.834;2024-01-06T09:57:02;34.63;;;15.90;;
29824;SDS011;16713;52.916;12.834;2024-01-06T09:59:32;31.38;;;17.67;;
29824;SDS011;16713;52.916;12.834;2024-01-06T10:02:01;32.45;;;16.63;;
29824;SDS011;16713;52.916;12.834;2024-01-06T10:04:29;32.92;;;16.98;;
29824;SDS011;16713;52.916;12.834;2024-01-06T10:06:56;30.67;;;17.00;;
29824;SDS011;16713;52.916;12.834;2024-01-06T10:09:26;32.85;;;16.65;;
29824;SDS011;16713;52.916;12.834;2024-01-06T10:11:55;33.30;;;17.60;;
29824;SDS011;16713;52.916;12.834;2024-01-06T10:14:23;32.28;;;17.70;;
29824;SDS011;16713;52.916;12.834;2024-01-06T10:16:51;35.17;;;17.55;;
29824;SDS011;16713;52.916;12.834;2024-01-06T10:19:18;30.25;;;15.68;;
29824;SDS011;16713;52.916;12.834;2024-01-06T10:21:45;33.20;;;17.27;;
29824;SDS011;16713;52.916;12.834;2024-01-06T10:24:12;32.05;;;17.05;;
29824;SDS011;16713;52.916;12.834;2024-01-06T10:26:40;35.90;;;17.33;;
29824;SDS011;16713;52.916;12.834;2024-01-06T10:29:06;32.50;;;15.85;;
29824;SDS011;16713;52.916;12.834;2024-01-06T10:31:33;40.45;;;18.38;;
29824;SDS011;16713;52.916;12.834;2024-01-06T10:34:00;30.10;;;16.88;;
29824;SDS011;16713;52.916;12.834;2024-01-06T10:36:27;33.85;;;17.25;;
29824;SDS011;16713;52.916;12.834;2024-01-06T10:38:54;23.25;;;13.38;;
29824;SDS011;16713;52.916;12.834;2024-01-06T10:41:22;27.88;;;13.52;;
29824;SDS011;16713;52.916;12.834;2024-01-06T10:43:50;30.08;;;15.55;;
29824;SDS011;16713;52.916;12.834;2024-01-06T10:46:20;35.17;;;17.95;;
29824;SDS011;16713;52.916;12.834;2024-01-06T10:51:16;24.38;;;14.10;;
29824;SDS011;16713;52.916;12.834;2024-01-06T10:53:45;31.08;;;15.68;;
29824;SDS011;16713;52.916;12.834;2024-01-06T10:56:14;30.48;;;16.33;;
29824;SDS011;16713;52.916;12.834;2024-01-06T10:58:45;33.35;;;16.20;;
29824;SDS011;16713;52.916;12.834;2024-01-06T11:01:14;27.13;;;14.98;;
29824;SDS011;16713;52.916;12.834;2024-01-06T11:03:46;31.75;;;15.77;;
29824;SDS011;16713;52.916;12.834;2024-01-06T11:06:15;31.55;;;15.98;;
29824;SDS011;16713;52.916;12.834;2024-01-06T11:08:51;30.48;;;15.90;;
29824;SDS011;16713;52.916;12.834;2024-01-06T11:11:23;29.20;;;15.90;;
29824;SDS011;16713;52.916;12.834;2024-01-06T11:13:50;31.80;;;16.25;;
29824;SDS011;16713;52.916;12.834;2024-01-06T11:16:36;29.08;;;16.52;;
29824;SDS011;16713;52.916;12.834;2024-01-06T11:19:10;30.30;;;15.10;;
29824;SDS011;16713;52.916;12.834;2024-01-06T11:24:51;23.23;;;11.77;;
29824;SDS011;16713;52.916;12.834;2024-01-06T11:27:21;26.10;;;13.68;;
29824;SDS011;16713;52.916;12.834;2024-01-06T11:29:53;24.70;;;11.68;;
29824;SDS011;16713;52.916;12.834;2024-01-06T11:34:54;24.98;;;13.38;;
29824;SDS011;16713;52.916;12.834;2024-01-06T11:37:24;25.88;;;12.45;;
29824;SDS011;16713;52.916;12.834;2024-01-06T11:42:49;25.92;;;13.45;;
29824;SDS011;16713;52.916;12.834;2024-01-06T11:45:26;22.25;;;11.52;;
29824;SDS011;16713;52.916;12.834;2024-01-06T11:47:57;24.55;;;11.65;;
29824;SDS011;16713;52.916;12.834;2024-01-06T11:50:26;23.90;;;12.40;;
29824;SDS011;16713;52.916;12.834;2024-01-06T11:52:53;24.58;;;13.00;;
29824;SDS011;16713;52.916;12.834;2024-01-06T11:55:21;24.73;;;11.88;;
29824;SDS011;16713;52.916;12.834;2024-01-06T11:57:48;21.00;;;11.45;;
29824;SDS011;16713;52.916;12.834;2024-01-06T12:00:16;19.35;;;11.40;;
29824;SDS011;16713;52.916;12.834;2024-01-06T12:02:43;27.38;;;12.48;;
29824;SDS011;16713;52.916;12.834;2024-01-06T12:05:14;22.25;;;12.07;;
29824;SDS011;16713;52.916;12.834;2024-01-06T12:10:11;16.52;;;9.85;;
29824;SDS011;16713;52.916;12.834;2024-01-06T12:12:38;22.05;;;11.23;;
29824;SDS011;16713;52.916;12.834;2024-01-06T12:15:05;22.05;;;10.93;;
29824;SDS011;16713;52.916;12.834;2024-01-06T12:17:32;20.27;;;10.68;;
29824;SDS011;16713;52.916;12.834;2024-01-06T12:19:58;20.33;;;10.75;;
29824;SDS011;16713;52.916;12.834;2024-01-06T12:22:25;19.83;;;10.35;;
29824;SDS011;16713;52.916;12.834;2024-01-06T12:24:52;21.83;;;10.38;;
29824;SDS011;16713;52.916;12.834;2024-01-06T12:27:19;18.35;;;10.48;;
29824;SDS011;16713;52.916;12.834;2024-01-06T12:29:47;18.33;;;9.75;;
29824;SDS011;16713;52.916;12.834;2024-01-06T12:32:14;19.45;;;11.90;;
29824;SDS011;16713;52.916;12.834;2024-01-06T12:34:40;25.10;;;10.35;;
29824;SDS011;16713;52.916;12.834;2024-01-06T12:37:07;19.63;;;10.23;;
29824;SDS011;16713;52.916;12.834;2024-01-06T12:39:34;19.27;;;9.93;;
29824;SDS011;16713;52.916;12.834;2024-01-06T12:42:01;19.38;;;10.85;;
29824;SDS011;16713;52.916;12.834;2024-01-06T12:44:27;19.45;;;10.15;;
29824;SDS011;16713;52.916;12.834;2024-01-06T12:46:54;17.08;;;10.00;;
29824;SDS011;16713;52.916;12.834;2024-01-06T12:49:21;16.63;;;9.40;;
29824;SDS011;16713;52.916;12.834;2024-01-06T12:51:48;18.15;;;9.02;;
29824;SDS011;16713;52.916;12.834;2024-01-06T12:54:14;18.90;;;9.90;;
29824;SDS011;16713;52.916;12.834;2024-01-06T12:56:41;19.98;;;10.20;;
29824;SDS011;16713;52.916;12.834;2024-01-06T12:59:07;17.65;;;9.40;;
29824;SDS011;16713;52.916;12.834;2024-01-06T13:01:34;15.65;;;7.95;;
29824;SDS011;16713;52.916;12.834;2024-01-06T13:04:01;16.38;;;8.73;;
29824;SDS011;16713;52.916;12.834;2024-01-06T13:06:28;17.17;;;9.23;;
29824;SDS011;16713;52.916;12.834;2024-01-06T13:08:55;14.20;;;8.02;;
29824;SDS011;16713;52.916;12.834;2024-01-06T13:11:21;11.88;;;7.68;;
29824;SDS011;16713;52.916;12.834;2024-01-06T13:13:48;14.23;;;8.00;;
29824;SDS011;16713;52.916;12.834;2024-01-06T13:16:15;14.38;;;7.95;;
29824;SDS011;16713;52.916;12.834;2024-01-06T13:18:42;14.20;;;7.20;;
29824;SDS011;16713;52.916;12.834;2024-01-06T13:21:08;12.73;;;7.78;;
29824;SDS011;16713;52.916;12.834;2024-01-06T13:23:35;12.23;;;7.00;;
29824;SDS011;16713;52.916;12.834;2024-01-06T13:26:01;17.90;;;7.78;;
29824;SDS011;16713;52.916;12.834;2024-01-06T13:28:28;15.25;;;7.85;;
29824;SDS011;16713;52.916;12.834;2024-01-06T13:30:54;14.82;;;7.40;;
29824;SDS011;16713;52.916;12.834;2024-01-06T13:33:21;14.30;;;7.20;;
29824;SDS011;16713;52.916;12.834;2024-01-06T13:35:49;13.10;;;7.28;;
29824;SDS011;16713;52.916;12.834;2024-01-06T13:38:16;14.85;;;6.97;;
29824;SDS011;16713;52.916;12.834;2024-01-06T13:40:43;17.25;;;7.80;;
29824;SDS011;16713;52.916;12.834;2024-01-06T13:43:09;13.45;;;6.88;;
29824;SDS011;16713;52.916;12.834;2024-01-06T13:45:42;12.05;;;6.28;;
29824;SDS011;16713;52.916;12.834;2024-01-06T13:48:09;14.38;;;8.30;;
29824;SDS011;16713;52.916;12.834;2024-01-06T13:50:36;16.67;;;8.07;;
29824;SDS011;16713;52.916;12.834;2024-01-06T13:53:03;14.02;;;6.45;;
29824;SDS011;16713;52.916;12.834;2024-01-06T13:55:29;11.10;;;7.07;;
29824;SDS011;16713;52.916;12.834;2024-01-06T13:57:56;10.90;;;6.28;;
29824;SDS011;16713;52.916;12.834;2024-01-06T14:00:23;11.70;;;6.30;;
29824;SDS011;16713;52.916;12.834;2024-01-06T14:02:50;14.13;;;6.63;;
29824;SDS011;16713;52.916;12.834;2024-01-06T14:05:17;11.65;;;6.18;;
29824;SDS011;16713;52.916;12.834;2024-01-06T14:07:45;15.50;;;8.25;;
29824;SDS011;16713;52.916;12.834;2024-01-06T14:10:14;13.57;;;6.10;;
29824;SDS011;16713;52.916;12.834;2024-01-06T14:12:41;13.23;;;6.57;;
29824;SDS011;16713;52.916;12.834;2024-01-06T14:15:08;10.13;;;5.93;;
29824;SDS011;16713;52.916;12.834;2024-01-06T14:17:35;11.73;;;6.03;;
29824;SDS011;16713;52.916;12.834;2024-01-06T14:20:02;11.55;;;5.60;;
29824;SDS011;16713;52.916;12.834;2024-01-06T14:22:29;11.50;;;5.85;;